Time;durP1;ratioP1;P1;durP2;ratioP2;P2;SDS_P1;SDS_P2;PMS_P1;PMS_P2;Temp;Humidity;BMP_temperature;BMP_pressure;BME280_temperature;BME280_humidity;BME280_pressure;Samples;Min_cycle;Max_cycle;Signal;HPM_P1;HPM_P2
2021/12/22 00:02:20;;;;;;;17.80;12.20;;;;;;;-3.42;93.31;98943.66;5078235;28;20466;-71
2021/12/22 00:04:49;;;;;;;14.00;11.50;;;;;;;-3.46;92.64;98947.41;5077885;28;20453;-71
2021/12/22 00:07:16;;;;;;;16.50;11.20;;;;;;;-3.50;93.21;98953.75;5078216;28;20440;-71
2021/12/22 00:09:44;;;;;;;19.30;12.00;;;;;;;-3.66;93.11;98947.16;5077865;28;20935;-71
2021/12/22 00:12:11;;;;;;;16.13;11.83;;;;;;;-3.56;93.26;98941.22;5077690;28;20456;-71
2021/12/22 00:14:38;;;;;;;17.63;11.97;;;;;;;-3.48;92.91;98938.06;5078031;28;20449;-71
2021/12/22 00:17:04;;;;;;;16.57;11.57;;;;;;;-3.66;92.86;98945.38;5078027;28;20422;-70
2021/12/22 00:19:31;;;;;;;16.23;11.43;;;;;;;-3.68;93.51;98936.88;5077934;28;20433;-70
2021/12/22 00:21:57;;;;;;;14.67;11.40;;;;;;;-3.66;93.45;98928.97;5077817;28;20466;-70
2021/12/22 00:24:24;;;;;;;16.53;11.77;;;;;;;-3.63;93.56;98939.13;5077741;28;20432;-70
2021/12/22 00:26:50;;;;;;;19.90;12.07;;;;;;;-3.66;93.16;98937.59;5077772;28;20454;-70
2021/12/22 00:29:17;;;;;;;18.57;11.90;;;;;;;-3.60;93.76;98936.31;5077774;28;20445;-70
2021/12/22 00:31:56;;;;;;;18.17;12.43;;;;;;;-3.64;93.21;98933.13;5077394;28;20418;-70
2021/12/22 00:34:26;;;;;;;15.90;12.83;;;;;;;-3.61;93.24;98935.47;5077567;28;20429;-70
2021/12/22 00:36:53;;;;;;;17.97;12.40;;;;;;;-3.74;94.08;98931.28;5077589;28;20527;-70
2021/12/22 00:39:19;;;;;;;15.77;12.07;;;;;;;-3.77;93.56;98934.09;5077527;28;20460;-70
2021/12/22 00:41:45;;;;;;;20.83;12.57;;;;;;;-3.77;93.94;98928.91;5077423;28;20461;-70
2021/12/22 00:44:13;;;;;;;16.37;11.80;;;;;;;-3.73;94.26;98935.53;5077794;28;20697;-70
2021/12/22 00:46:39;;;;;;;15.20;11.73;;;;;;;-3.75;93.93;98935.63;5077405;28;20421;-70
2021/12/22 00:49:06;;;;;;;16.77;12.33;;;;;;;-3.77;93.93;98942.72;5077391;28;20418;-71
2021/12/22 00:51:32;;;;;;;17.83;13.00;;;;;;;-3.73;94.09;98938.13;5076989;28;20420;-71
2021/12/22 00:53:58;;;;;;;17.30;12.93;;;;;;;-3.77;93.75;98954.88;5077277;28;20716;-71
2021/12/22 00:56:25;;;;;;;18.03;13.63;;;;;;;-3.78;94.83;98937.63;5077161;28;20453;-70
2021/12/22 00:58:52;;;;;;;16.90;12.20;;;;;;;-3.77;93.51;98941.88;5077834;28;20442;-70
2021/12/22 01:01:18;;;;;;;16.57;12.63;;;;;;;-3.88;93.78;98953.03;5076763;28;20421;-70
2021/12/22 01:03:44;;;;;;;17.13;12.87;;;;;;;-3.85;93.82;98945.03;5077648;28;20418;-70
2021/12/22 01:06:13;;;;;;;18.93;12.20;;;;;;;-3.75;94.00;98951.22;5076815;28;20458;-70
2021/12/22 01:08:40;;;;;;;17.53;12.30;;;;;;;-3.73;94.12;98945.94;5076716;28;20837;-70
2021/12/22 01:11:07;;;;;;;19.23;13.57;;;;;;;-3.72;93.86;98940.63;5076745;28;20451;-70
2021/12/22 01:13:34;;;;;;;21.37;12.63;;;;;;;-3.74;94.21;98941.69;5076907;28;20433;-70
2021/12/22 01:16:00;;;;;;;15.80;11.97;;;;;;;-3.70;93.96;98938.75;5076505;28;20904;-70
2021/12/22 01:18:31;;;;;;;16.80;12.60;;;;;;;-3.75;93.43;98937.44;5076887;28;20432;-70
2021/12/22 01:21:06;;;;;;;15.60;12.27;;;;;;;-3.77;93.44;98942.72;5076879;28;20433;-71
2021/12/22 01:23:37;;;;;;;18.53;12.97;;;;;;;-3.68;94.29;98951.63;5076760;28;20519;-71
2021/12/22 01:26:05;;;;;;;18.47;12.20;;;;;;;-3.85;94.36;98944.22;5076730;28;20460;-71
2021/12/22 01:28:33;;;;;;;14.63;11.63;;;;;;;-3.83;94.34;98947.53;5076459;28;20845;-71
2021/12/22 01:31:02;;;;;;;18.87;12.17;;;;;;;-3.78;94.57;98946.28;5076726;28;20457;-71
2021/12/22 01:33:29;;;;;;;16.20;12.70;;;;;;;-3.79;94.43;98957.56;5076723;28;20479;-71
2021/12/22 01:35:55;;;;;;;16.53;12.53;;;;;;;-3.76;94.30;98959.97;5076606;28;20452;-71
2021/12/22 01:38:22;;;;;;;17.67;12.57;;;;;;;-3.80;94.22;98952.50;5076327;28;20858;-71
2021/12/22 01:40:48;;;;;;;20.67;13.70;;;;;;;-3.76;95.07;98959.97;5076332;28;20828;-71
2021/12/22 01:43:16;;;;;;;14.70;11.50;;;;;;;-3.76;94.16;98961.75;5076535;28;20461;-71
2021/12/22 01:45:55;;;;;;;18.40;13.27;;;;;;;-3.73;93.96;98970.16;5076287;28;20464;-71
2021/12/22 01:49:10;;;;;;;22.13;13.97;;;;;;;-3.71;94.23;98962.25;5076485;28;20425;-71
2021/12/22 01:52:12;;;;;;;17.43;12.20;;;;;;;-3.80;93.98;98958.53;5076458;28;20552;-71
2021/12/22 01:55:13;;;;;;;20.23;13.13;;;;;;;-3.80;94.06;98958.53;5034426;28;20779;-71
2021/12/22 01:57:48;;;;;;;21.23;13.47;;;;;;;-3.83;94.07;98953.56;5076137;28;20447;-71
2021/12/22 02:00:18;;;;;;;14.60;12.37;;;;;;;-3.78;94.76;98954.06;5076416;28;20444;-71
2021/12/22 02:02:44;;;;;;;20.47;13.77;;;;;;;-3.78;95.01;98948.03;5076303;28;20468;-71
2021/12/22 02:05:11;;;;;;;19.33;14.27;;;;;;;-3.79;95.02;98949.78;5076257;28;20457;-71
2021/12/22 02:07:38;;;;;;;19.57;14.07;;;;;;;-3.77;95.05;98944.47;5076367;28;20421;-71
2021/12/22 02:10:19;;;;;;;20.07;13.67;;;;;;;-3.75;95.03;98950.41;5076345;28;20428;-71
2021/12/22 02:12:50;;;;;;;20.37;13.60;;;;;;;-3.78;95.07;98951.47;5076009;28;20886;-71
2021/12/22 02:15:16;;;;;;;17.50;13.90;;;;;;;-3.83;95.21;98958.75;5076203;28;20540;-71
2021/12/22 02:17:43;;;;;;;20.30;13.97;;;;;;;-3.90;95.43;98960.09;5077510;28;20710;-71
2021/12/22 02:20:10;;;;;;;18.53;13.67;;;;;;;-3.96;95.27;98960.53;5079895;28;20425;-71
2021/12/22 02:22:39;;;;;;;20.90;14.83;;;;;;;-3.93;95.80;98960.31;5079778;28;20781;-71
2021/12/22 02:25:13;;;;;;;21.87;14.47;;;;;;;-4.00;95.55;98951.31;5079726;28;20722;-71
2021/12/22 02:27:45;;;;;;;18.47;14.43;;;;;;;-3.96;95.47;98957.09;5080077;28;20429;-71
2021/12/22 02:30:17;;;;;;;18.20;13.50;;;;;;;-3.93;95.57;98954.31;5079959;28;20429;-71
2021/12/22 02:33:09;;;;;;;20.83;14.10;;;;;;;-4.03;95.37;98951.50;5079655;28;20890;-71
2021/12/22 02:35:44;;;;;;;23.77;15.43;;;;;;;-4.00;95.41;98955.66;5079867;28;20514;-71
2021/12/22 02:38:17;;;;;;;21.57;15.70;;;;;;;-4.03;95.92;98954.09;5079849;28;20425;-71
2021/12/22 02:40:47;;;;;;;21.73;15.03;;;;;;;-3.96;96.04;98951.91;5080263;28;20436;-71
2021/12/22 02:43:20;;;;;;;20.33;14.50;;;;;;;-3.98;95.29;98962.41;5079688;28;20461;-71
2021/12/22 02:45:47;;;;;;;17.57;13.23;;;;;;;-3.97;95.09;98958.88;5080244;28;20464;-71
2021/12/22 02:48:14;;;;;;;19.90;15.27;;;;;;;-3.99;95.28;98955.56;5079682;28;20421;-71
2021/12/22 02:50:40;;;;;;;22.33;14.40;;;;;;;-3.97;94.71;98950.25;5079620;28;20425;-71
2021/12/22 02:53:10;;;;;;;21.70;14.00;;;;;;;-3.91;94.35;98955.00;5079535;28;20429;-71
2021/12/22 02:55:47;;;;;;;20.33;14.30;;;;;;;-4.01;94.25;98962.63;5079945;28;20457;-71
2021/12/22 02:58:22;;;;;;;23.40;14.17;;;;;;;-3.95;94.98;98954.41;5079619;28;20536;-71
2021/12/22 03:01:02;;;;;;;21.20;14.67;;;;;;;-3.99;94.40;98952.97;5079308;28;20879;-71
2021/12/22 03:03:45;;;;;;;22.80;15.73;;;;;;;-4.08;94.52;98958.78;5079309;28;20526;-72
2021/12/22 03:06:14;;;;;;;19.90;14.43;;;;;;;-4.13;94.75;98958.28;5078974;28;20515;-72
2021/12/22 03:08:41;;;;;;;19.80;13.57;;;;;;;-4.06;94.41;98966.47;5079143;28;20441;-72
2021/12/22 03:11:07;;;;;;;22.23;14.83;;;;;;;-4.05;94.52;98958.59;5078780;28;20468;-72
2021/12/22 03:13:34;;;;;;;19.63;14.33;;;;;;;-4.03;94.18;98950.69;5078887;28;20858;-72
2021/12/22 03:16:00;;;;;;;22.00;14.27;;;;;;;-4.00;94.88;98953.91;5079110;28;20457;-72
2021/12/22 03:18:26;;;;;;;18.87;13.37;;;;;;;-4.03;94.15;98945.50;5079164;28;20425;-72
2021/12/22 03:21:01;;;;;;;20.27;14.27;;;;;;;-4.00;94.82;98948.72;5079093;28;20422;-72
2021/12/22 03:23:27;;;;;;;18.97;14.63;;;;;;;-4.02;94.31;98950.56;5078728;28;20911;-71
2021/12/22 03:25:54;;;;;;;20.00;15.03;;;;;;;-4.05;94.54;98955.16;5078621;28;20904;-72
2021/12/22 03:28:20;;;;;;;20.37;14.80;;;;;;;-4.13;94.67;98950.50;5078581;28;20421;-72
2021/12/22 03:30:48;;;;;;;20.20;13.50;;;;;;;-4.06;95.06;98953.50;5078534;28;20435;-72
2021/12/22 03:33:14;;;;;;;21.90;14.47;;;;;;;-4.03;94.40;98948.91;5078892;28;20422;-72
2021/12/22 03:35:41;;;;;;;19.27;14.27;;;;;;;-4.13;94.32;98955.69;5078461;28;20449;-72
2021/12/22 03:38:07;;;;;;;21.07;14.77;;;;;;;-4.14;94.67;98951.44;5078803;28;20501;-72
2021/12/22 03:40:34;;;;;;;20.77;15.00;;;;;;;-4.21;94.89;98957.97;5078766;28;20421;-72
2021/12/22 03:43:00;;;;;;;22.57;15.43;;;;;;;-4.29;95.20;98959.44;5078597;28;20457;-72
2021/12/22 03:45:26;;;;;;;19.77;14.57;;;;;;;-4.25;95.13;98969.50;5078563;28;20453;-72
2021/12/22 03:47:53;;;;;;;21.17;15.07;;;;;;;-4.23;94.96;98974.59;5078615;28;20432;-72
2021/12/22 03:50:19;;;;;;;20.23;15.30;;;;;;;-4.16;94.93;98971.47;5078538;28;20505;-72
2021/12/22 03:52:47;;;;;;;21.47;14.53;;;;;;;-4.23;94.29;98980.63;5078452;28;20429;-72
2021/12/22 03:55:14;;;;;;;20.87;15.07;;;;;;;-4.22;94.46;98977.09;5078377;28;20502;-72
2021/12/22 03:57:41;;;;;;;18.13;13.67;;;;;;;-4.19;94.19;98976.88;5077974;28;20438;-72
2021/12/22 04:00:11;;;;;;;21.17;14.30;;;;;;;-4.26;94.08;98970.44;5078263;28;20425;-72
2021/12/22 04:02:37;;;;;;;19.93;14.43;;;;;;;-4.29;94.12;98981.03;5078095;28;20464;-72
2021/12/22 04:05:05;;;;;;;20.73;14.40;;;;;;;-4.28;94.13;98981.88;5078375;28;20465;-72
2021/12/22 04:07:32;;;;;;;22.40;15.90;;;;;;;-4.26;94.56;98979.97;5079014;28;20421;-72
2021/12/22 04:09:59;;;;;;;19.53;13.87;;;;;;;-4.35;93.59;98978.00;5077797;28;20938;-72
2021/12/22 04:12:26;;;;;;;21.43;15.13;;;;;;;-4.32;93.45;98981.25;5077719;28;20437;-72
2021/12/22 04:14:52;;;;;;;19.17;14.00;;;;;;;-4.32;93.21;98970.88;5077883;28;20453;-72
2021/12/22 04:17:18;;;;;;;19.17;14.10;;;;;;;-4.37;93.37;98972.97;5077926;28;20429;-72
2021/12/22 04:19:45;;;;;;;20.53;14.20;;;;;;;-4.43;93.11;98975.13;5077797;28;20433;-72
2021/12/22 04:22:11;;;;;;;20.10;13.83;;;;;;;-4.50;93.42;98966.94;5077703;28;20421;-72
2021/12/22 04:24:38;;;;;;;19.83;13.50;;;;;;;-4.54;93.35;98964.63;5077650;28;20449;-72
2021/12/22 04:27:04;;;;;;;20.37;14.43;;;;;;;-4.53;93.50;98963.72;5077406;28;20433;-72
2021/12/22 04:29:30;;;;;;;19.63;14.67;;;;;;;-4.47;93.34;98956.31;5077585;28;20531;-72
2021/12/22 04:31:57;;;;;;;21.00;14.73;;;;;;;-4.63;93.86;98963.50;5077221;28;20433;-72
2021/12/22 04:34:23;;;;;;;23.57;14.37;;;;;;;-4.50;94.18;98956.56;5077001;28;20442;-72
2021/12/22 04:36:50;;;;;;;20.37;14.10;;;;;;;-4.49;94.18;98954.75;5077033;28;20860;-72
2021/12/22 04:39:16;;;;;;;19.00;15.23;;;;;;;-4.55;94.52;98956.03;5077362;28;20448;-72
2021/12/22 04:41:42;;;;;;;19.90;14.07;;;;;;;-4.51;93.86;98954.91;5076954;28;20422;-72
2021/12/22 04:44:09;;;;;;;26.60;16.90;;;;;;;-4.53;93.49;98956.75;5077197;28;20473;-71
2021/12/22 04:46:35;;;;;;;21.37;14.17;;;;;;;-4.49;93.37;98952.16;5077056;28;20461;-72
2021/12/22 04:49:03;;;;;;;21.63;15.00;;;;;;;-4.46;93.29;98944.19;5077011;28;20547;-72
2021/12/22 04:51:30;;;;;;;21.13;14.17;;;;;;;-4.53;93.79;98948.97;5077091;28;20483;-72
2021/12/22 04:54:04;;;;;;;21.43;14.83;;;;;;;-4.57;93.57;98937.13;5077106;28;20468;-72
2021/12/22 04:56:31;;;;;;;22.27;14.70;;;;;;;-4.53;93.50;98936.00;5076870;28;20457;-72
2021/12/22 04:58:58;;;;;;;22.03;14.17;;;;;;;-4.52;93.83;98942.84;5077036;28;20435;-72
2021/12/22 05:01:25;;;;;;;23.33;14.37;;;;;;;-4.51;94.23;98939.31;5076827;28;20504;-72
2021/12/22 05:03:51;;;;;;;18.77;14.13;;;;;;;-4.48;93.70;98941.69;5076458;28;20765;-72
2021/12/22 05:06:17;;;;;;;18.43;13.83;;;;;;;-4.44;93.91;98930.19;5076819;28;20459;-72
2021/12/22 05:08:44;;;;;;;20.87;14.73;;;;;;;-4.55;94.02;98931.84;5076806;28;20433;-71
2021/12/22 05:11:10;;;;;;;20.93;15.07;;;;;;;-4.50;93.83;98934.94;5076381;28;20754;-72
2021/12/22 05:13:36;;;;;;;20.00;14.20;;;;;;;-4.48;93.89;98943.47;5076483;28;20848;-72
2021/12/22 05:16:05;;;;;;;20.70;15.20;;;;;;;-4.46;93.88;98947.63;5076720;28;20757;-72
2021/12/22 05:18:49;;;;;;;19.63;14.83;;;;;;;-4.48;94.04;98943.47;5076638;28;20464;-72
2021/12/22 05:21:16;;;;;;;20.97;14.93;;;;;;;-4.56;93.96;98941.38;5076855;28;20425;-72
2021/12/22 05:23:42;;;;;;;23.70;15.67;;;;;;;-4.54;94.09;98942.13;5076095;28;20461;-72
2021/12/22 05:26:09;;;;;;;22.67;14.63;;;;;;;-4.59;93.70;98945.94;5076361;28;20461;-72
2021/12/22 05:28:35;;;;;;;21.30;15.47;;;;;;;-4.63;93.93;98947.94;5076284;28;20437;-72
2021/12/22 05:31:01;;;;;;;19.93;13.70;;;;;;;-4.65;93.79;98944.59;5076403;28;20433;-72
2021/12/22 05:33:28;;;;;;;18.00;13.93;;;;;;;-4.61;93.30;98948.66;5076463;28;20429;-72
2021/12/22 05:35:54;;;;;;;19.47;13.67;;;;;;;-4.67;92.73;98956.84;5076342;28;20453;-71
2021/12/22 05:38:20;;;;;;;21.03;14.73;;;;;;;-4.72;93.23;98960.69;5076258;28;20425;-71
2021/12/22 05:40:47;;;;;;;21.43;14.43;;;;;;;-4.78;93.23;98961.94;5076148;28;20426;-72
2021/12/22 05:43:13;;;;;;;22.87;14.73;;;;;;;-4.84;93.25;98959.72;5075736;28;20479;-72
2021/12/22 05:45:40;;;;;;;18.67;13.57;;;;;;;-4.83;93.29;98963.16;5075991;28;20449;-71
2021/12/22 05:48:06;;;;;;;22.33;14.17;;;;;;;-4.78;93.85;98966.28;5075728;28;20444;-72
2021/12/22 05:50:33;;;;;;;20.23;14.27;;;;;;;-4.86;92.96;98959.00;5076036;28;20863;-72
2021/12/22 05:52:59;;;;;;;20.43;14.73;;;;;;;-4.82;92.78;98968.25;5074961;28;20720;-72
2021/12/22 05:55:26;;;;;;;22.43;14.43;;;;;;;-4.78;92.53;98966.28;5075824;28;20453;-71
2021/12/22 05:57:53;;;;;;;18.40;13.60;;;;;;;-4.95;92.61;98970.00;5075789;28;20425;-72
2021/12/22 06:00:22;;;;;;;22.00;15.17;;;;;;;-4.96;93.24;98967.50;5076078;28;20422;-71
2021/12/22 06:02:48;;;;;;;21.90;14.67;;;;;;;-4.96;93.28;98970.94;5075474;28;20749;-72
2021/12/22 06:05:15;;;;;;;19.67;14.43;;;;;;;-4.94;93.38;98970.81;5075773;28;20457;-72
2021/12/22 06:07:41;;;;;;;21.90;15.27;;;;;;;-4.87;93.36;98969.47;5076029;28;20425;-72
2021/12/22 06:10:08;;;;;;;22.30;15.37;;;;;;;-4.74;93.64;98967.75;5075511;28;20426;-72
2021/12/22 06:12:34;;;;;;;20.33;15.20;;;;;;;-4.70;93.52;98969.19;5075457;28;20452;-72
2021/12/22 06:15:01;;;;;;;24.83;15.30;;;;;;;-4.72;92.83;98964.09;5075317;28;20741;-72
2021/12/22 06:17:27;;;;;;;26.93;14.90;;;;;;;-4.78;93.09;98959.34;5075764;28;20440;-72
2021/12/22 06:19:54;;;;;;;19.37;14.43;;;;;;;-4.75;92.52;98966.91;5075941;28;20430;-72
2021/12/22 06:22:20;;;;;;;19.10;14.37;;;;;;;-4.80;92.59;98963.78;5075959;28;20782;-72
2021/12/22 06:24:47;;;;;;;22.30;14.70;;;;;;;-4.84;93.12;98964.91;5075508;28;20481;-72
2021/12/22 06:27:13;;;;;;;20.83;14.93;;;;;;;-4.81;93.10;98959.53;5075567;28;20724;-72
2021/12/22 06:29:39;;;;;;;27.97;16.00;;;;;;;-4.75;92.84;98968.69;5075716;28;20422;-72
2021/12/22 06:32:06;;;;;;;19.10;14.77;;;;;;;-4.73;93.09;98965.06;5075584;28;20429;-72
2021/12/22 06:34:33;;;;;;;18.57;14.57;;;;;;;-4.77;92.74;98960.16;5074969;28;20843;-72
2021/12/22 06:36:59;;;;;;;21.77;15.43;;;;;;;-4.76;92.96;98964.41;5075372;28;20433;-72
2021/12/22 06:39:26;;;;;;;20.20;14.70;;;;;;;-4.71;93.32;98964.94;5075675;28;20432;-72
2021/12/22 06:41:52;;;;;;;21.27;15.43;;;;;;;-4.71;93.63;98963.16;5075387;28;20460;-72
2021/12/22 06:44:19;;;;;;;22.27;14.37;;;;;;;-4.72;93.54;98966.72;5075287;28;20469;-72
2021/12/22 06:46:45;;;;;;;22.23;14.77;;;;;;;-4.69;93.49;98971.69;5075774;28;20923;-72
2021/12/22 06:49:12;;;;;;;20.60;15.07;;;;;;;-4.70;93.06;98964.00;5075143;28;20853;-72
2021/12/22 06:51:39;;;;;;;20.77;14.63;;;;;;;-4.74;93.05;98968.56;5075441;28;20461;-72
2021/12/22 06:54:05;;;;;;;20.73;14.63;;;;;;;-4.76;93.21;98965.25;5075362;28;20425;-73
2021/12/22 06:56:32;;;;;;;23.47;15.60;;;;;;;-4.80;93.12;98963.78;5075004;28;20762;-72
2021/12/22 06:59:00;;;;;;;21.93;15.43;;;;;;;-4.84;93.42;98961.50;5075516;28;20417;-72
2021/12/22 07:01:27;;;;;;;20.07;14.83;;;;;;;-4.87;92.76;98959.94;5075216;28;20800;-72
2021/12/22 07:03:54;;;;;;;22.20;15.67;;;;;;;-4.89;93.27;98966.19;5076618;28;20468;-72
2021/12/22 07:06:20;;;;;;;23.17;14.53;;;;;;;-4.85;93.06;98968.44;5078822;28;20452;-72
2021/12/22 07:08:47;;;;;;;23.43;15.03;;;;;;;-4.83;93.30;98968.34;5079114;28;20424;-72
2021/12/22 07:11:13;;;;;;;27.47;15.67;;;;;;;-4.79;93.27;98969.81;5078787;28;20452;-73
2021/12/22 07:13:39;;;;;;;21.40;14.80;;;;;;;-4.78;92.45;98967.13;5078668;28;20723;-72
2021/12/22 07:16:06;;;;;;;23.17;14.77;;;;;;;-4.84;92.12;98959.72;5078433;28;20908;-72
2021/12/22 07:18:32;;;;;;;23.83;14.83;;;;;;;-4.84;92.83;98956.31;5078617;28;20433;-72
2021/12/22 07:21:00;;;;;;;27.47;16.03;;;;;;;-4.80;92.68;98955.19;5078825;28;20454;-72
2021/12/22 07:23:27;;;;;;;21.80;15.30;;;;;;;-4.78;92.95;98964.53;5078308;28;20468;-72
2021/12/22 07:25:53;;;;;;;21.37;14.67;;;;;;;-4.90;92.35;98967.94;5078408;28;20453;-72
2021/12/22 07:28:19;;;;;;;22.30;15.57;;;;;;;-4.88;92.72;98979.00;5078348;28;20713;-72
2021/12/22 07:30:46;;;;;;;18.97;15.17;;;;;;;-4.85;92.71;98980.56;5078597;28;20428;-72
2021/12/22 07:33:12;;;;;;;24.57;14.93;;;;;;;-4.87;92.29;98979.84;5078473;28;20429;-72
2021/12/22 07:35:44;;;;;;;23.37;14.27;;;;;;;-4.81;92.86;98993.25;5078472;28;20460;-72
2021/12/22 07:38:26;;;;;;;21.63;14.50;;;;;;;-4.83;92.37;98995.13;5078245;28;20429;-72
2021/12/22 07:40:53;;;;;;;21.80;15.10;;;;;;;-4.75;92.31;98995.44;5077772;28;20427;-72
2021/12/22 07:43:20;;;;;;;22.47;15.53;;;;;;;-4.71;92.66;98996.88;5077668;28;20891;-72
2021/12/22 07:45:47;;;;;;;25.13;15.13;;;;;;;-4.67;92.50;99002.69;5077690;28;20453;-72
2021/12/22 07:48:14;;;;;;;20.17;14.97;;;;;;;-4.67;92.32;99006.13;5078077;28;20425;-72
2021/12/22 07:50:40;;;;;;;24.37;15.97;;;;;;;-4.68;92.07;99004.47;5078025;28;20432;-72
2021/12/22 07:53:07;;;;;;;22.27;15.50;;;;;;;-4.67;92.65;99000.94;5077748;28;20421;-72
2021/12/22 07:55:33;;;;;;;21.73;15.37;;;;;;;-4.58;92.66;99005.53;5077900;28;20460;-72
2021/12/22 07:58:00;;;;;;;24.93;15.80;;;;;;;-4.63;92.61;99002.41;5077822;28;20422;-72
2021/12/22 08:00:27;;;;;;;22.20;16.17;;;;;;;-4.62;92.71;99009.25;5077991;28;20425;-72
2021/12/22 08:02:54;;;;;;;24.10;16.07;;;;;;;-4.47;92.55;99010.00;5077886;28;20465;-72
2021/12/22 08:05:21;;;;;;;25.83;15.33;;;;;;;-4.42;92.07;99016.56;5077829;28;20481;-72
2021/12/22 08:07:47;;;;;;;21.03;13.87;;;;;;;-4.39;92.08;99008.53;5077553;28;20426;-72
2021/12/22 08:10:13;;;;;;;25.57;15.80;;;;;;;-4.31;92.08;99013.22;5077390;28;20421;-72
2021/12/22 08:12:40;;;;;;;25.83;16.07;;;;;;;-4.28;92.09;99011.25;5077503;28;20422;-72
2021/12/22 08:15:07;;;;;;;25.63;16.83;;;;;;;-4.29;92.53;99012.19;5076690;28;20457;-72
2021/12/22 08:17:34;;;;;;;24.33;16.23;;;;;;;-4.23;92.22;99009.19;5077590;28;20428;-72
2021/12/22 08:20:02;;;;;;;24.63;17.20;;;;;;;-4.20;92.10;99014.16;5077535;28;20426;-72
2021/12/22 08:22:28;;;;;;;25.80;16.50;;;;;;;-4.14;91.43;99005.97;5077403;28;20436;-72
2021/12/22 08:24:54;;;;;;;21.67;15.70;;;;;;;-4.16;91.77;99010.41;5077317;28;20476;-73
2021/12/22 08:27:22;;;;;;;24.23;16.50;;;;;;;-4.11;91.75;99013.53;5077431;28;20496;-72
2021/12/22 08:29:50;;;;;;;23.23;17.40;;;;;;;-4.12;91.41;99008.47;5077351;28;20422;-73
2021/12/22 08:32:16;;;;;;;25.60;16.70;;;;;;;-4.11;91.47;99013.53;5077215;28;20695;-72
2021/12/22 08:34:43;;;;;;;21.80;16.70;;;;;;;-4.07;91.02;99017.56;5077382;28;20449;-72
2021/12/22 08:39:56;;;;;;;22.33;17.17;;;;;;;-3.97;91.18;99002.19;5077085;28;20479;-72
2021/12/22 08:42:23;;;;;;;24.63;16.47;;;;;;;-3.98;91.04;99003.94;5076722;28;20421;-72
2021/12/22 08:44:49;;;;;;;25.03;17.67;;;;;;;-3.93;90.88;98996.66;5076913;28;20567;-72
2021/12/22 08:47:17;;;;;;;22.40;17.47;;;;;;;-3.97;90.92;98997.00;5077801;28;20421;-72
2021/12/22 08:49:45;;;;;;;24.60;16.87;;;;;;;-3.86;91.19;98992.72;5076803;28;20731;-72
2021/12/22 08:52:11;;;;;;;25.97;16.63;;;;;;;-3.87;91.43;98995.44;5076671;28;20837;-72
2021/12/22 08:54:39;;;;;;;26.03;17.70;;;;;;;-3.75;91.30;98987.59;5076718;28;20453;-72
2021/12/22 08:57:05;;;;;;;26.90;17.03;;;;;;;-3.69;90.72;98991.53;5076500;28;20724;-72
2021/12/22 08:59:32;;;;;;;27.27;17.97;;;;;;;-3.59;90.45;98985.59;5076824;28;20425;-72
2021/12/22 09:01:59;;;;;;;24.77;18.07;;;;;;;-3.53;91.00;98981.75;5076833;28;20421;-72
2021/12/22 09:04:25;;;;;;;27.43;17.63;;;;;;;-3.51;90.72;98982.44;5076585;28;20462;-72
2021/12/22 09:06:53;;;;;;;30.53;17.67;;;;;;;-3.43;90.69;98983.53;5076836;28;20432;-72
2021/12/22 09:09:21;;;;;;;24.50;17.20;;;;;;;-3.41;90.41;98976.50;5076367;28;20424;-72
2021/12/22 09:11:48;;;;;;;24.80;16.03;;;;;;;-3.26;90.17;98983.19;5076094;28;20758;-72
2021/12/22 09:14:15;;;;;;;22.80;17.13;;;;;;;-3.20;89.04;98984.50;5076595;28;20445;-72
2021/12/22 09:16:42;;;;;;;21.93;15.73;;;;;;;-3.12;89.25;98977.81;5076381;28;20425;-72
2021/12/22 09:19:10;;;;;;;22.47;16.93;;;;;;;-3.14;88.75;98976.25;5076769;28;20495;-72
2021/12/22 09:21:38;;;;;;;23.93;17.20;;;;;;;-3.05;88.30;98980.78;5077172;28;20428;-72
2021/12/22 09:24:06;;;;;;;22.53;17.20;;;;;;;-2.93;88.35;98991.13;5076153;28;20744;-71
2021/12/22 09:26:32;;;;;;;28.70;17.40;;;;;;;-2.88;87.75;98981.22;5076177;28;20457;-69
2021/12/22 09:28:59;;;;;;;25.70;17.00;;;;;;;-2.77;87.82;98980.41;5076405;28;20424;-71
2021/12/22 09:31:26;;;;;;;23.57;15.90;;;;;;;-2.67;87.70;98987.44;5076432;28;20417;-71
2021/12/22 09:33:53;;;;;;;23.03;17.27;;;;;;;-2.66;87.55;98976.06;5076442;28;20421;-70
2021/12/22 09:36:20;;;;;;;29.63;17.43;;;;;;;-2.57;87.30;98992.78;5060191;28;20461;-70
2021/12/22 09:38:47;;;;;;;23.73;16.90;;;;;;;-2.52;86.70;98983.66;5055972;28;20509;-70
2021/12/22 09:41:14;;;;;;;21.10;16.40;;;;;;;-2.56;86.08;98974.47;5056055;28;20429;-70
2021/12/22 09:43:42;;;;;;;25.67;17.00;;;;;;;-2.53;86.41;98969.00;5055900;28;20842;-70
2021/12/22 09:46:11;;;;;;;25.73;17.10;;;;;;;-2.47;85.97;98968.56;5056137;28;20454;-70
2021/12/22 09:48:49;;;;;;;23.27;16.97;;;;;;;-2.28;86.72;98962.75;5056242;28;20422;-71
2021/12/22 09:54:05;;;;;;;29.43;18.37;;;;;;;-2.27;86.47;98957.44;5056217;28;20385;-70
2021/12/22 09:56:33;;;;;;;27.20;16.93;;;;;;;-2.20;85.73;98963.00;5056022;28;20454;-70
2021/12/22 09:59:00;;;;;;;22.57;16.70;;;;;;;-2.21;85.69;98961.38;5055562;28;20838;-70
2021/12/22 10:01:27;;;;;;;28.73;17.97;;;;;;;-2.10;85.89;98962.19;5056106;28;20440;-70
2021/12/22 10:03:55;;;;;;;30.00;17.23;;;;;;;-2.04;84.57;98963.47;5056156;28;20763;-70
2021/12/22 10:06:22;;;;;;;22.67;16.47;;;;;;;-1.99;84.55;98967.38;5055970;28;20449;-70
2021/12/22 10:08:58;;;;;;;24.83;17.90;;;;;;;-1.92;84.56;98958.16;5055715;28;20860;-73
2021/12/22 10:11:25;;;;;;;27.50;16.77;;;;;;;-1.90;85.01;98956.25;5055768;28;20454;-70
2021/12/22 10:13:51;;;;;;;27.03;17.47;;;;;;;-1.78;84.38;98955.31;5055938;28;20431;-69
2021/12/22 10:16:25;;;;;;;20.73;16.10;;;;;;;-1.70;84.45;98946.88;5055649;28;20924;-70
2021/12/22 10:19:09;;;;;;;29.43;17.00;;;;;;;-1.69;83.49;98948.53;5055503;28;20426;-70
2021/12/22 10:21:37;;;;;;;22.80;17.20;;;;;;;-1.65;84.56;98934.31;5055936;28;20448;-70
2021/12/22 10:24:07;;;;;;;23.73;16.53;;;;;;;-1.62;84.37;98934.88;5055899;28;20535;-70
2021/12/22 10:26:34;;;;;;;24.90;16.27;;;;;;;-1.54;82.52;98937.72;5055829;28;20454;-70
2021/12/22 10:29:02;;;;;;;22.47;16.00;;;;;;;-1.48;83.06;98932.00;5055795;28;20433;-70
2021/12/22 10:31:36;;;;;;;23.37;16.77;;;;;;;-1.46;83.98;98919.69;5055313;28;20842;-70
2021/12/22 10:34:12;;;;;;;23.63;15.83;;;;;;;-1.41;81.99;98914.91;5055656;28;20429;-69
2021/12/22 10:36:53;;;;;;;22.90;17.57;;;;;;;-1.36;82.57;98917.16;5055600;28;20539;-69
2021/12/22 10:39:33;;;;;;;19.80;15.47;;;;;;;-1.31;81.48;98909.81;5057678;28;20422;-69
2021/12/22 10:42:09;;;;;;;22.43;14.23;;;;;;;-1.23;79.19;98912.59;5059585;28;20429;-69
2021/12/22 10:44:44;;;;;;;22.63;16.30;;;;;;;-1.21;79.26;98911.50;5058808;28;20468;-70
2021/12/22 10:47:20;;;;;;;21.40;15.20;;;;;;;-1.08;78.06;98906.97;5059066;28;20429;-69
2021/12/22 10:50:05;;;;;;;23.40;15.80;;;;;;;-0.99;77.69;98897.56;5059206;28;20518;-69
2021/12/22 10:52:33;;;;;;;19.23;15.87;;;;;;;-0.94;78.64;98895.41;5058872;28;20434;-70
2021/12/22 10:55:13;;;;;;;17.50;14.33;;;;;;;-0.93;76.67;98889.22;5058921;28;20513;-70
2021/12/22 10:57:44;;;;;;;22.30;16.47;;;;;;;-0.89;78.50;98886.22;5059037;28;20726;-71
2021/12/22 11:00:17;;;;;;;19.33;15.93;;;;;;;-0.80;77.44;98882.03;5059153;28;20513;-70
2021/12/22 11:02:50;;;;;;;22.67;15.37;;;;;;;-0.82;78.12;98887.38;5058931;28;20437;-71
2021/12/22 11:05:20;;;;;;;22.87;15.67;;;;;;;-0.72;77.96;98877.81;5058880;28;20473;-70
2021/12/22 11:07:47;;;;;;;19.80;15.63;;;;;;;-0.74;78.91;98878.88;5058627;28;20857;-71
2021/12/22 11:10:27;;;;;;;20.53;15.10;;;;;;;-0.65;78.37;98876.34;5058529;28;20441;-71
2021/12/22 11:13:05;;;;;;;18.67;15.43;;;;;;;-0.72;76.12;98864.75;5059285;28;20422;-71
2021/12/22 11:15:41;;;;;;;19.70;14.17;;;;;;;-0.65;77.15;98865.06;5059263;28;20454;-71
2021/12/22 11:18:33;;;;;;;17.10;13.30;;;;;;;-0.50;75.18;98864.59;5058490;28;20422;-70
2021/12/22 11:21:10;;;;;;;19.47;13.93;;;;;;;-0.36;75.02;98855.59;5058652;28;20427;-70
2021/12/22 11:23:37;;;;;;;19.07;13.90;;;;;;;-0.48;75.10;98852.25;5058757;28;20452;-71
2021/12/22 11:26:05;;;;;;;18.63;14.40;;;;;;;-0.43;75.79;98854.44;5058043;28;20488;-70
2021/12/22 11:28:34;;;;;;;18.30;14.43;;;;;;;-0.46;75.41;98850.31;5058372;28;20433;-71
2021/12/22 11:31:02;;;;;;;18.37;13.87;;;;;;;-0.34;74.48;98848.44;5058151;28;20526;-71